Miguel Nunez

Chief Scout - Nacional
4 Dec 2028
Monday
Process

Personality

Adaptability (20) Ambition (10) Controversy (19) Loyalty (5) Pressure (17) Professionalism (16) Sportsmanship (15) Temperament (7)

Profile

Coaching Style Democratic
License National B
Determination 5
Man Management 9
Motivating 13
Discipline 9
Job Satisfaction
100%
Fatigue
0%
Role Chief Scout
Wage 49.7K p/w
Contract 14.03.2030

Performance

Behaviour Good
Training Effectiveness
55%
Player Development
55%
Injury Prevention
25%
Tactical Implementation
70%

Recent Events

Recommended a transfer target now
Assessed a player now
Assessed a player now
Assessed a player now
Assessed a player now
Presented a dossier to the board now
Presented a dossier to the board now
Presented a dossier to the board now

Currently Monitoring

342
Player Club Status Ability Confidence Watched Last Observed Latest Vote
Iván Bella Defensor Sporting Lost 93 / 109 79% 1 03.12.2028 -
Mathías Cubero Danubio Lost 109 / 103 79% 1 01.12.2028 -
Uriel Antuna Dinamo Moscow Lost 137 / 145 40% 1 01.12.2028 -
Luis Vázquez Mamelodi Sundowns Active 141 / 137 40% 1 01.12.2028 -
Nick Woltemade Newcastle United Active 163 / 149 40% 1 01.12.2028 -
Ignacio Perruzzi San Lorenzo Active 130 / 129 40% 7 30.11.2028 -
Gastón Martirena Racing Club Active 129 / 133 40% 5 30.11.2028 -
Sheyko Studer Independiente Rivadavia Active 129 / 133 40% 2 30.11.2028 -
Santiago Longo Belgrano Active 129 / 129 40% 2 29.11.2028 -
Gastón Hernández San Lorenzo Active 132 / 131 40% 6 29.11.2028 -
Iván Martín Racing Santander Negotiating 158 / 165 40% 1 29.11.2028 -
Sasha Marcich Lanús Active 130 / 122 40% 5 28.11.2028 -
Facundo Zabala Independiente Active 129 / 126 40% 5 28.11.2028 -
Federico Navarro Rosario Central Active 125 / 127 40% 1 28.11.2028 -
Lucas Souto Defensa y Justicia Active 130 / 117 40% 7 27.11.2028 -
Emiliano Álvarez Progreso Active 129 / 129 40% 6 27.11.2028 -
Santiago Núñez Estudiantes Active 130 / 129 40% 8 25.11.2028 -
Matías Galarza Talleres Active 132 / 129 40% 5 25.11.2028 -
Gonzalo Pérez Lanús Active 127 / 130 40% 3 25.11.2028 -
César Ibáñez Huracán Active 125 / 119 40% 3 23.11.2028 -
Aarón Quiros Vélez Active 127 / 121 40% 5 23.11.2028 -
Juan Saborido Platense Active 129 / 133 40% 6 23.11.2028 -
Adrián Sánchez Belgrano Active 126 / 116 40% 5 22.11.2028 -
Agustín Sández Newell's Old Boys Active 129 / 121 40% 3 22.11.2028 -
Bruno Leyes Godoy Cruz Active 131 / 121 40% 5 18.11.2028 -
Joaquín Mosqueira Talleres Active 125 / 126 40% 5 15.11.2028 -
Nazareno Colombo Racing Club Active 129 / 127 40% 8 14.11.2028 -
Thiago Silvero Vélez Active 131 / 140 40% 3 14.11.2028 -
Ignacio Rodríguez Racing Club Active 128 / 127 40% 4 14.11.2028 -
Felipe Peña Biafore Lanús Active 134 / 140 40% 6 13.11.2028 -
Augusto Schott Talleres Active 127 / 128 40% 7 13.11.2028 -
Gastón Benedetti Estudiantes Active 126 / 129 40% 5 12.11.2028 -
Agustín Cardozo Lanús Active 125 / 127 40% 4 12.11.2028 -
Gonzalo Montiel River Plate Active 129 / 133 40% 3 12.11.2028 -
Santiago González Tigre Active 134 / 128 40% 7 11.11.2028 -
Kevin López Independiente Active 124 / 126 40% 8 11.11.2028 -
Vicente Poggi Godoy Cruz Active 124 / 118 40% 7 08.11.2028 -
Gonzalo Luján Inter Miami CF Active 124 / 129 40% 1 08.11.2028 -
Joaquín García Vélez Active 129 / 134 40% 4 07.11.2028 -
Emanuel Coronel Rosario Central Active 129 / 120 40% 5 02.11.2028 -
Marcos López Gimnasia La Plata Active 129 / 133 40% 3 01.11.2028 -
Franco Ibarra Rosario Central Active 132 / 138 40% 5 01.11.2028 -
Jherson Mosquera Newell's Old Boys Active 128 / 129 40% 6 30.10.2028 -
Marco Di Cesare Racing Club Active 127 / 124 40% 4 29.10.2028 -
Tobías Ramírez River Plate Active 133 / 132 40% 3 23.10.2028 -
Elián Giménez Sarmiento Active 128 / 127 40% 4 22.10.2028 -
Lucas Carrizo Newell's Old Boys Active 124 / 132 40% 4 12.10.2028 -
Damián Fernández Defensa y Justicia Active 133 / 124 40% 2 08.10.2028 -
Rico Henry River Plate Active 139 / 145 40% 1 26.09.2028 -
Ayrton Costa Boca Juniors Active 129 / 142 40% 1 23.09.2028 -
Juan Carlos Portillo River Plate Active 134 / 139 40% 3 20.09.2028 -
Rodrigo Herrera Newell's Old Boys Active 123 / 119 40% 3 19.09.2028 -
Ignacio Vázquez Platense Active 126 / 122 40% 4 19.09.2028 -
Guille Rosas Boca Juniors Active 144 / 155 40% 2 17.09.2028 -
Riku Yamane Yokohama F. Marinos Active 140 / 122 40% 1 07.09.2028 -
Jonathan De Irastorza Independiente Active 131 / 141 40% 1 24.08.2028 -
David Carmo Olympiacos Active 150 / 156 40% 1 24.08.2028 -
Marco Pellegrino Boca Juniors Active 130 / 140 40% 1 23.08.2028 -
Edoardo Pieragnolo Sassuolo Active 134 / 131 40% 1 20.08.2028 -
Sebastiano Luperto Cremonese Active 144 / 136 40% 1 20.08.2028 -
Lucas Da Cunha Como Active 148 / 164 40% 1 20.08.2028 -
Honest Ahanor Atalanta Active 136 / 137 40% 2 18.08.2028 -
Exequiel Palacios Lazio Active 156 / 171 40% 1 18.08.2028 -
Jordan Zemura Udinese Active 143 / 148 40% 1 18.08.2028 -
Lewis Ferguson Bologna Active 156 / 146 40% 3 17.08.2028 -
Devyne Rensch Virtus Entella Active 151 / 163 40% 1 17.08.2028 -
Adrián Bernabé Parma Active 141 / 155 40% 1 16.08.2028 -
Giorgio Scalvini Atalanta Active 168 / 164 40% 1 16.08.2028 -
Enrico Delprato Parma Active 154 / 159 40% 1 16.08.2028 -
Thierry Rendall Correia Venezia Active 150 / 143 40% 1 15.08.2028 -
Antonino Gallo Bari Active 141 / 152 40% 1 15.08.2028 -
Emanuele Valeri Parma Active 141 / 155 40% 1 14.08.2028 -
Juan Miranda Bologna Active 144 / 153 40% 1 11.08.2028 -
Alessandro Buongiorno Cagliari Active 162 / 159 40% 1 11.08.2028 -
Morten Frendrup Palermo Active 151 / 139 40% 1 10.08.2028 -
Andrey Santos Bolton Wanderers Active 147 / 150 40% 1 09.08.2028 -
Reuell Walters Luton Town Active 133 / 115 40% 1 09.08.2028 -
Boubacar Kamara Aston Villa Active 171 / 172 40% 1 09.08.2028 -
Lewis Bate Stockport County Active 136 / 137 40% 4 08.08.2028 -
Odel Offiah Shrewsbury Town Active 127 / 135 40% 1 08.08.2028 -
Caspar Jander Southampton Active 142 / 155 40% 1 08.08.2028 -
Alfie Doughty Millwall Active 130 / 124 40% 6 07.08.2028 -
Vitaly Janelt Derby County Active 150 / 149 40% 2 07.08.2028 -
Adrià Altimira Deportivo La Coruña Active 138 / 138 40% 1 07.08.2028 -
Axel Montaña Danubio Active 98 / 108 79% 1 03.07.2028 Approve
Agustín Alaniz Rentistas Active 118 / 120 79% 1 19.06.2028 Approve
Nicolás Ferreira Wanderers Active 116 / 123 79% 1 07.06.2028 Approve
Mohamed-Ali Cho Hull City Active 147 / 131 40% 7 01.06.2028 -
Sebastiano Esposito Cagliari Active 151 / 132 40% 2 01.06.2028 -
Rodrigo Muniz Fulham Active 139 / 149 40% 1 01.06.2028 -
Shea Charles Southampton Active 148 / 141 40% 8 31.05.2028 -
Jhon Solís Birmingham Active 135 / 131 40% 1 31.05.2028 -
Demarai Gray Birmingham Active 139 / 136 40% 1 29.05.2028 -
Joelinton Everton Active 165 / 166 40% 6 24.05.2028 -
Amine Adli Bournemouth Active 149 / 137 40% 3 24.05.2028 -
Harry Wilson Leeds United Active 145 / 160 40% 2 23.05.2028 -
Kasey McAteer Barnsley Active 135 / 129 40% 2 23.05.2028 -
Jayden Danns Bradford City Active 139 / 151 40% 3 22.05.2028 -
Finn Azaz Southampton Active 137 / 126 40% 4 22.05.2028 -
Ben Gannon Doak Charlton Athletic Active 145 / 144 40% 10 21.05.2028 -
Tyrese Campbell Sheffield United Active 133 / 131 40% 6 20.05.2028 -
Jaidon Anthony Derby County Active 141 / 128 40% 6 20.05.2028 -
Jaden Philogene Wolverhampton Active 152 / 158 40% 4 19.05.2028 -
Marcus Tavernier Bournemouth Active 157 / 149 40% 4 16.05.2028 -
Abdoul Ouattara Port Vale Active 136 / 132 40% 6 16.05.2028 -
Samuel Edozie Southampton Active 133 / 133 40% 5 13.05.2028 -
Jeremy Sarmiento Middlesbrough Active 137 / 136 40% 1 13.05.2028 -
Callum O'Hare Sheffield United Active 131 / 147 40% 1 12.05.2028 -
Jayden Addai Bari Active 145 / 150 40% 1 11.05.2028 -
Jarrod Bowen West Ham United Active 160 / 150 40% 1 10.05.2028 -
Marcus Edwards Burnley Active 144 / 153 40% 6 09.05.2028 -
Ismaïla Sarr Crystal Palace Active 158 / 161 40% 7 08.05.2028 -
Sorba Thomas Stoke City Active 135 / 146 40% 2 08.05.2028 -
Quilindschy Hartman Burnley Active 155 / 163 40% 5 02.05.2028 -
Welington Southampton Active 143 / 143 40% 10 01.05.2028 -
Isaiah Jones Luton Town Active 135 / 140 40% 2 30.04.2028 -
Mikkel Damsgaard Brentford Active 159 / 158 40% 7 27.04.2028 -
Carlos Alcaraz Stoke City Active 148 / 148 40% 5 26.04.2028 -
Emile Smith Rowe Cardiff City Active 155 / 138 40% 4 24.04.2028 -
Zito Luvumbo Cagliari Active 143 / 133 40% 7 18.04.2028 -
Malick Fofana Sunderland Active 158 / 156 40% 2 13.04.2028 -
Musa Barrow ES Setif Active 151 / 139 40% 1 12.04.2028 -
Alex Scott Bournemouth Active 153 / 161 40% 10 11.04.2028 -
Fábio Carvalho Brentford Active 153 / 157 40% 3 05.04.2028 -
Brandon Thomas-Asante Blackpool Active 124 / 110 40% 1 26.03.2028 -
Nathan Broadhead Wrexham Active 125 / 139 40% 1 25.03.2028 -
William Osula Wrexham Active 143 / 146 40% 3 24.03.2028 -
Riley McGree Middlesbrough Active 143 / 137 40% 1 24.03.2028 -
Marcelo Allende Mamelodi Sundowns Active 146 / 143 40% 4 20.03.2028 -
Eddie Nketiah Crystal Palace Active 142 / 152 40% 2 19.03.2028 -
Yeremy Pino Crystal Palace Active 156 / 156 40% 1 04.03.2028 -
Matteo Ruggeri Middlesbrough Active 154 / 138 40% 1 02.03.2028 -
Borja Sainz Udinese Active 158 / 160 40% 1 29.02.2028 -
Manor Solomon West Ham United Active 145 / 140 40% 1 27.02.2028 -
Nuno Santos SuperSport United Active 132 / 111 40% 1 21.02.2028 -
Luis Rodriguez Valur Active 128 / 118 40% 3 19.02.2028 -
Alisson Shakhtar Active 139 / 150 40% 1 12.02.2028 -
Esequiel Barco Spartak Moscow Active 149 / 138 40% 1 11.02.2028 -
Marquinhos Spartak Moscow Active 130 / 142 40% 1 05.02.2028 -
Franco Zapiola Platense Active 132 / 124 40% 1 01.02.2028 -
Alex Luna Instituto Active 135 / 133 40% 3 31.01.2028 -
Juan Bisanz Huracán Active 126 / 137 40% 1 30.01.2028 -
Aarón Molinas Defensa y Justicia Active 133 / 117 40% 2 28.01.2028 -
Bruno Barticciotto Talleres Active 134 / 120 40% 1 26.01.2028 -
Tomás Galván River Plate Active 129 / 118 40% 1 21.01.2028 -
Lautaro Guzmán MTK Budapest Active 122 / 112 40% 1 16.01.2028 -
Gastón Togni Defensa y Justicia Active 125 / 119 40% 3 11.01.2028 -
Matko Miljevic Racing Club Active 132 / 119 40% 1 09.01.2028 -
Tiago Palacios Estudiantes Active 131 / 133 40% 1 06.01.2028 -
Jaminton Campaz Rosario Central Active 130 / 134 40% 2 05.01.2028 -
Alexis Cuello San Lorenzo Active 124 / 125 40% 1 04.01.2028 -
Nicolás Tripichio San Lorenzo Active 120 / 121 40% 2 27.12.2027 -
Largie Ramazani Leeds United Active 149 / 145 40% 1 02.12.2027 -
Josh Keeley Luton Town Active 140 / 143 40% 5 29.11.2027 -
Lautaro Maldonado Instituto Active 118 / 121 40% 11 29.11.2027 -
Vladimir Nazarov Pakhtakor Active 117 / 110 40% 3 29.11.2027 -
James Trafford Leeds United Active 149 / 137 40% 10 28.11.2027 -
Lautaro Morales Lanús Active 134 / 123 40% 9 25.11.2027 -
Luciano Jachfe Nueva Chicago Active 121 / 128 40% 9 24.11.2027 -
Leandro Brey Boca Juniors Active 131 / 126 40% 4 23.11.2027 -
Abduvohid Ne'matov Nasaf Active 126 / 115 40% 5 22.11.2027 -
Sol Brynn Bradford City Active 137 / 140 40% 3 22.11.2027 -
Miguel Acosta Argentinos Juniors Active 112 / 103 40% 8 21.11.2027 -
Guillermo Enrique Huracán Active 120 / 127 40% 2 21.11.2027 -
Laureano Martínez Talleres Active 110 / 102 40% 6 17.11.2027 -
Federico Losas Chacarita Juniors Active 124 / 123 40% 6 15.11.2027 -
Ľubomír Belko Viking Active 137 / 152 40% 5 15.11.2027 -
Oliver Dovin Coventry City Active 140 / 147 40% 3 14.11.2027 -
Franco Díaz Temperley Active 128 / 133 40% 2 14.11.2027 -
Bruno Antúnez Boston River Active 115 / 111 40% 9 11.11.2027 -
Cristopher Varela Deportivo La Guaira Active 127 / 130 40% 8 11.11.2027 -
Frankarlos Benítez Caracas Active 106 / 108 40% 7 10.11.2027 -
Facundo Vila Estudiantes Active 108 / 98 40% 8 08.11.2027 -
Iván Chaves Patronato Active 103 / 100 40% 4 08.11.2027 -
Luis Ingolotti Atlético Tucumán Active 126 / 116 40% 4 03.11.2027 -
Francisco Salerno Defensores Unidos Active 106 / 101 40% 6 29.10.2027 -
Victor Hernandez Santa Fe Active 122 / 113 40% 2 27.10.2027 -
Murphy Cooper Plymouth Argyle Active 118 / 120 40% 4 24.10.2027 -
Fabrizio Correa Juventud Active 123 / 110 40% 8 22.10.2027 -
Mikheil Makatsaria Torpedo Kutaisi Active 114 / 115 40% 3 21.10.2027 -
Nahuel Banegas Tigre Active 120 / 115 40% 2 21.10.2027 -
Christos Mandas Lazio Active 151 / 131 40% 2 21.10.2027 -
Ignacio Abraham Banfield Active 120 / 121 40% 1 21.10.2027 -
José Florentín Independiente Rivadavia Active 123 / 110 40% 1 21.10.2027 -
Nicolás Sumavil Platense Active 117 / 108 40% 8 16.10.2027 -
Mauro Casoli Talleres Active 112 / 98 40% 7 09.10.2027 -
Mathías Bernatene Liverpool Montevideo Active 111 / 103 40% 1 09.10.2027 -
Miguel Silva Carabobo Active 117 / 106 40% 3 08.10.2027 -
Hernán de la Fuente Instituto Active 119 / 125 40% 2 08.10.2027 -
Lukáš Horníček Burnley Active 154 / 157 40% 1 04.10.2027 -
Claudio Bravo Argentinos Juniors Active 121 / 126 40% 1 02.10.2027 -
Temirlan Anarbekov Kairat Active 118 / 124 40% 5 29.09.2027 -
Oliver Petersen Odd Active 122 / 111 40% 4 27.09.2027 -
Muhammadyusuf Sobirov Bunyodkor Active 109 / 107 40% 1 25.09.2027 -
N'Golo Traoré Stade Malien Active 113 / 124 40% 2 24.09.2027 -
Ander Astralaga Newcastle United Active 135 / 134 40% 1 23.09.2027 -
Aníbal Moreno River Plate Active 137 / 126 40% 1 23.09.2027 -
Daniil Ustimenko Tobol Active 109 / 110 40% 1 29.08.2027 -
Leonardo Godoy Independiente Active 122 / 129 40% 1 27.08.2027 -
Luka Gavran Toronto FC Active 109 / 102 40% 4 23.08.2027 -
Isaac Boehmer Vancouver Whitecaps Active 115 / 100 40% 1 19.08.2027 -
Oumar Solet Udinese Active 157 / 155 40% 1 19.08.2027 -
Gianluca Saro Foggia Active 120 / 105 40% 4 17.08.2027 -
Matteo Sorzi Carpi Active 101 / 123 40% 2 17.08.2027 -
Valerio Boffelli Cavese Active 107 / 96 40% 1 12.08.2027 -
Cesare Galeotti Trapani Active 113 / 113 40% 2 11.08.2027 -
William Rovida Pro Patria Active 108 / 122 40% 2 10.08.2027 -
Filip Marschall Stevenage Active 115 / 122 40% 5 09.08.2027 -
Max Bird Birmingham Active 133 / 150 40% 6 08.08.2027 -
Nathan Bishop AFC Wimbledon Active 107 / 109 40% 3 08.08.2027 -
Ludovico Del Sorbo Sorrento Active 109 / 118 40% 3 30.07.2027 -
Jordan Amissah Burton Albion Active 115 / 116 40% 1 30.07.2027 -
Robin Roefs Sunderland Active 155 / 161 40% 6 27.07.2027 -
Myles Roberts Cambridge United Active 105 / 111 40% 1 25.07.2027 -
Nicolò Zaniolo Udinese Active 150 / 133 40% 2 19.07.2027 -
Giacomo Raspadori Atalanta Active 154 / 153 40% 1 19.07.2027 -
Mateo Pellegrino Fiorentina Active 145 / 149 40% 1 01.07.2027 -
Adam Randell Bristol City Active 130 / 144 40% 6 28.06.2027 -
Max Johnston Derby County Active 125 / 121 40% 14 28.06.2027 -
Jonathan Varane Queens Park Rangers Active 132 / 113 40% 2 28.06.2027 -
Darlin Yongwa Norwich City Active 127 / 117 40% 4 23.06.2027 -
Florentino Luís Ipswich Town Active 139 / 127 40% 9 23.06.2027 -
Erick Sánchez RC Lens Active 139 / 139 68% 1 01.06.2027 Approve
Ivor Pandur Hull City Active 127 / 119 40% 1 30.05.2027 -
Pedro Porro Tottenham Active 146 / 165 40% 3 25.05.2027 -
Oliver Skipp Leicester City Active 139 / 146 40% 6 24.05.2027 -
Jacques Ekomié Wrexham Active 134 / 141 40% 7 24.05.2027 -
Milan van Ewijk Coventry City Active 128 / 138 40% 11 23.05.2027 -
Sergio Barlocco Trento Active 105 / 126 40% 1 22.05.2027 -
Adam Wharton Crystal Palace Active 149 / 146 40% 7 20.05.2027 -
Dennis Cirkin Queens Park Rangers Active 126 / 122 40% 6 18.05.2027 -
Jarrad Branthwaite Everton Active 157 / 170 40% 4 18.05.2027 -
Mats Wieffer Brighton Active 152 / 157 40% 4 17.05.2027 -
Ousmane Diomande Nottingham Forest Active 156 / 171 40% 2 17.05.2027 -
Juanlu Bournemouth Active 141 / 167 40% 6 16.05.2027 -
André Wolverhampton Active 149 / 154 40% 9 15.05.2027 -
Keane Lewis-Potter Brentford Active 140 / 149 40% 2 15.05.2027 -
Nicolas Madsen Queens Park Rangers Active 126 / 123 40% 2 14.05.2027 -
Ryan Sessegnon Fulham Active 150 / 143 40% 4 13.05.2027 -
Jake O'Brien Everton Active 142 / 150 40% 3 11.05.2027 -
Jack Currie Oxford United Active 127 / 122 40% 3 11.05.2027 -
Jacob Greaves Ipswich Town Active 136 / 128 40% 5 06.05.2027 -
Raoul Bellanova Atalanta Active 154 / 158 40% 3 05.05.2027 -
Ronnie Edwards Queens Park Rangers Active 126 / 146 40% 3 04.05.2027 -
Derry Murkin Derby County Active 131 / 127 40% 3 02.05.2027 -
Óscar Mingueza Crystal Palace Active 145 / 167 40% 5 28.04.2027 -
James Garner Everton Active 144 / 166 40% 3 28.04.2027 -
Aaron Hickey Brentford Active 142 / 141 40% 2 24.04.2027 -
Toby Collyer West Bromwich Albion Active 133 / 116 40% 3 23.04.2027 -
Shahriar Rezaeian Siah Jamegan Active 103 / 106 40% 1 20.04.2027 -
Quinten Timber Crystal Palace Active 153 / 153 40% 5 18.04.2027 -
Harry Clarke Preston Active 130 / 132 40% 6 15.04.2027 -
Aidan Morris Middlesbrough Active 125 / 113 40% 5 11.04.2027 -
Fran Vieites Walsall Active 125 / 107 40% 2 05.04.2027 -
Habib Diarra Sunderland Active 141 / 130 40% 3 02.04.2027 -
Oufa Shobeir MC Alger Active 125 / 124 40% 1 01.04.2027 -
Lewis Gibson Preston Active 120 / 109 40% 1 22.03.2027 -
Alexandr Koryakin Krasnodar Active 113 / 133 40% 2 15.03.2027 -
Arthur Beroe Active 119 / 114 40% 1 15.03.2027 -
Heorhii Yermakov Metalist Active 123 / 112 40% 3 10.03.2027 -
Nico O'Reilly Manchester City Active 160 / 165 40% 2 02.03.2027 -
Pelle Mattsson Norwich City Active 117 / 119 40% 3 26.02.2027 -
Luke McNally Bristol City Active 128 / 138 40% 4 24.02.2027 -
Dara O'Shea Ipswich Town Active 139 / 119 40% 3 23.02.2027 -
Nathan Collins Brentford Active 146 / 138 40% 2 21.02.2027 -
Matevž Vidovšek Olimpija Ljubljana Active 128 / 111 40% 3 15.02.2027 -
Lukas Jensen Millwall Active 113 / 123 40% 1 15.02.2027 -
Japhet Tanganga Sheffield United Active 139 / 119 40% 5 13.02.2027 -
Álex Centelles Levski Active 129 / 137 40% 2 12.02.2027 -
Aldair Faustino Levski Active 117 / 105 40% 1 07.02.2027 -
Bosun Lawal Stoke City Active 128 / 112 40% 2 05.02.2027 -
Luca Gemello Perugia Active 111 / 95 40% 1 05.02.2027 -
Teden Mengi Luton Town Active 131 / 118 40% 4 02.02.2027 -
Hayden Carter Blackburn Rovers Active 124 / 102 40% 1 02.02.2027 -
Gustavo Mantuan Zenit Active 131 / 140 40% 3 31.01.2027 -
Alfie Gilchrist West Bromwich Albion Active 126 / 132 40% 3 30.01.2027 -
Brian De Keersmaecker Oxford United Active 119 / 124 40% 1 28.01.2027 -
Samu Maccabi Netanya Active 119 / 111 40% 1 24.01.2027 -
Grégoire Coudert Burnley Active 134 / 128 40% 2 17.01.2027 -
Dion Lopy Al-Ittihad Active 122 / 146 40% 1 11.01.2027 -
Lee Buchanan Sheffield Wednesday Active 121 / 132 40% 1 11.01.2027 -
Mamadou Sangaré Brentford Active 134 / 150 40% 1 08.01.2027 -
Sławomir Abramowicz Jagiellonia Active 126 / 124 40% 2 02.01.2027 -
Roman Celentano FC Cincinnati Active 114 / 129 40% 1 02.01.2027 -
Chris Mepham West Bromwich Albion Active 125 / 117 40% 1 30.12.2026 -
Kenny Tete Fulham Active 139 / 127 40% 1 29.12.2026 -
Gedson Fernandes Spartak Moscow Active 136 / 125 40% 1 19.12.2026 -
Ştefan Târnovanu CFR Cluj Active 123 / 132 40% 1 18.12.2026 -
Kristoffer Lund Birmingham Active 130 / 133 40% 1 16.12.2026 -
Diego Enríquez Sporting Cristal Active 129 / 124 40% 3 08.12.2026 -
Luka Jović CFR Cluj Active 143 / 130 40% 7 06.12.2026 -
Esteban Obregón Montevideo City Torque Lost 114 / 118 79% 1 06.12.2026 Approve
Ollie Watkins Al-Hilal Active 153 / 132 40% 4 02.12.2026 -
Stanislav Agkatsev Brentford Active 132 / 133 66% 1 01.12.2026 Approve
Marvin Keller Chelsea Active 136 / 137 67% 1 01.12.2026 Approve
Che Adams Torino Active 137 / 131 40% 2 30.11.2026 -
Oli McBurnie Hull City Active 129 / 148 40% 1 28.11.2026 -
Bertrand Traoré Sunderland Active 138 / 115 40% 3 27.11.2026 -
Germán Berterame Inter Miami CF Active 138 / 116 40% 4 24.11.2026 -
Alexey Miranchuk Atlanta United FC Active 135 / 134 40% 3 24.11.2026 -
Reda Khadra Qarabag Active 124 / 117 40% 1 24.11.2026 -
Oscar Al-Taawoun Active 149 / 124 40% 1 24.11.2026 -
Leo Ceara Kashima Antlers Active 134 / 121 40% 6 22.11.2026 -
Vitinha Genoa Active 137 / 143 40% 1 21.11.2026 -
Azor Matusiwa Ipswich Town Active 143 / 120 40% 1 19.11.2026 -
Radek Vítek Middlesbrough Active 135 / 118 40% 3 17.11.2026 -
Hidemasa Morita Hull City Active 149 / 127 40% 1 15.11.2026 -
Keinan Davis Udinese Active 125 / 120 40% 2 13.11.2026 -
Martín Ojeda Orlando City Active 137 / 150 40% 6 12.11.2026 -
Martin Trnovský Podbrezova Active 106 / 100 40% 1 09.11.2026 -
Mojmír Chytil Slavia Prague Active 127 / 114 40% 4 07.11.2026 -
Hwang Hee-Chan Wolverhampton Active 135 / 149 40% 1 06.11.2026 -
Nathan Trott Cardiff City Active 123 / 119 40% 1 04.11.2026 -
Lukas Gütlbauer Wolfsberger AC Active 117 / 121 40% 1 01.11.2026 -
Lucas Bergström Union Berlin Active 118 / 117 40% 4 28.10.2026 -
Takuma Asano Sanfrecce Hiroshima Active 135 / 150 40% 6 23.10.2026 -
Petar Musa FC Dallas Active 140 / 136 40% 4 22.10.2026 -
Andreas Jungdal Westerlo Active 119 / 133 40% 1 10.10.2026 -
Pablo Felipe West Ham United Active 126 / 135 40% 1 07.10.2026 -
Richard Ludha MFK Skalica Active 109 / 116 40% 1 06.10.2026 -
Justin Hammel Grasshopper Active 121 / 115 40% 1 28.09.2026 -
Diego Romero Universitario Active 118 / 114 40% 2 26.09.2026 -
Myrto Uzuni Austin FC Active 134 / 147 40% 1 26.09.2026 -
CJ dos Santos San Diego Football Club Active 115 / 121 40% 1 25.09.2026 -
Enes Ünal Getafe Active 138 / 143 40% 1 21.09.2026 -
Aldo Pérez Guarani Active 107 / 121 40% 2 14.09.2026 -
Jesús Angulo Tigres Active 142 / 132 40% 1 10.09.2026 -
Ander Guevara Racing Genk Active 129 / 133 40% 1 10.09.2026 -
Héctor Holguín Morelia Active 111 / 125 40% 2 06.09.2026 -
Kazuki Fujita Avispa Fukuoka Active 119 / 116 40% 1 04.09.2026 -
Patrick Schulte Columbus Crew Active 116 / 118 40% 1 25.08.2026 -
Anthony Racioppi Sion Active 124 / 124 40% 2 21.08.2026 -
Steven Bergwijn Al-Ittihad Active 147 / 146 40% 1 14.08.2026 -
Lucas Verza Olimpia Active 109 / 98 40% 1 12.08.2026 -
Mauro Silveira Junior Active 111 / 102 40% 1 05.08.2026 -
John Pulskamp Sporting Kansas City Active 115 / 131 40% 1 05.08.2026 -
Milan Škriniar Fenerbahce Active 159 / 166 40% 1 04.08.2026 -
Víctor Guzmán Monterrey Active 121 / 134 40% 1 04.08.2026 -
Kevin Álvarez Club America Active 129 / 127 40% 1 04.08.2026 -
Luis Romo Guadalajara Active 138 / 136 40% 1 03.08.2026 -
Carlos Álvarez Club America Active 133 / 126 40% 1 03.08.2026 -
Jesús Gallardo Toluca Active 129 / 121 40% 1 03.08.2026 -